Nichiryu Maru — JG5632 — position and weather

sailwx.info

Track history (hours):
 
Tides and Currents Weather Stations Pressure Air Temp Water Temp Dewpoint Dewpoint Depression Visibility Wind Speed Wind Dir Waves Ship Positions

Nichiryu Maru

Last reported at 2015-Aug-31 12:12 UTC. Time now 2015-Sep-01 20:24 UTC.
Position N 34°51' E 139°22'.

Length 158 m; draft 6.5 m.

Type: Cargo ship. MMSI: 43100939.

Date/timePositionNaut miles runAvg speedWind from/ knotsBaromVisibWave heightAir tempDewpointWater temp
2015-Aug-31 12:12N 34°51' E 139°22'1818.9
2015-Aug-31 11:16N 35°02' E 139°39'1216.3
2015-Aug-31 10:33N 35°12' E 139°46'9 8.7
2015-Aug-31 09:33N 35°19' E 139°39'0 0.0
2015-Aug-31 08:29N 35°19' E 139°39'0 0.0
2015-Aug-31 07:32N 35°19' E 139°39'0 0.0
2015-Aug-31 06:32N 35°19' E 139°39'0 0.0
2015-Aug-31 05:26N 35°19' E 139°39'0 0.0
2015-Aug-31 04:32N 35°19' E 139°39'0 0.0
2015-Aug-31 03:29N 35°19' E 139°39'0 0.0
2015-Aug-31 02:26N 35°19' E 139°39'0 0.0
2015-Aug-31 01:32N 35°19' E 139°39'0 0.0
2015-Aug-31 00:32N 35°19' E 139°39'0 0.0
2015-Aug-30 23:32N 35°19' E 139°39'2 1.6
2015-Aug-30 22:32N 35°19' E 139°41'0 0.0
2015-Aug-30 21:32N 35°19' E 139°41'0 0.0
2015-Aug-30 20:32N 35°19' E 139°41'0 0.0
2015-Aug-30 19:32N 35°19' E 139°41'0 0.0
2015-Aug-30 18:32N 35°19' E 139°41'0 0.0
2015-Aug-30 17:32N 35°19' E 139°41'0 0.0
2015-Aug-30 16:32N 35°19' E 139°41'0 0.0
2015-Aug-30 15:32N 35°19' E 139°41'0 0.0
2015-Aug-30 14:32N 35°19' E 139°41'0 0.0
2015-Aug-30 13:32N 35°19' E 139°41'7 7.1
2015-Aug-30 12:33N 35°14' E 139°47'7217.1
2015-Aug-30 08:22N 34°32' E 138°36'166 3.4
2015-Aug-28 07:20N 34°37' E 135°15'4 0.9
2015-Aug-28 02:34N 34°32' E 135°14'1916.7
2015-Aug-28 01:26N 34°18' E 134°60'1618.6
2015-Aug-28 00:34N 34°02' E 134°60'22717.4
2015-Aug-27 11:32N 34°54' E 139°27'1919.4
2015-Aug-27 10:32N 35°08' E 139°44'1111.5
2015-Aug-27 09:33N 35°19' E 139°42'2 2.0
2015-Aug-27 08:33N 35°19' E 139°39'0 0.0
2015-Aug-27 07:33N 35°19' E 139°39'0 0.0
2015-Aug-27 06:33N 35°19' E 139°39'0 0.0
2015-Aug-27 05:33N 35°19' E 139°39'0 0.0
2015-Aug-27 04:33N 35°19' E 139°39'2 1.7
2015-Aug-27 03:34N 35°19' E 139°41'0 0.0
2015-Aug-27 02:33N 35°19' E 139°41'0 0.1
2015-Aug-27 01:33N 35°19' E 139°41'0 0.1
2015-Aug-27 00:33N 35°19' E 139°41'0 0.0
2015-Aug-26 23:33N 35°19' E 139°41'0 0.0
2015-Aug-26 22:33N 35°19' E 139°41'0 0.0
2015-Aug-26 21:33N 35°19' E 139°41'0 0.0
2015-Aug-26 20:33N 35°19' E 139°41'0 0.0
2015-Aug-26 19:33N 35°19' E 139°41'0 0.0
2015-Aug-26 18:33N 35°19' E 139°41'0 0.0
2015-Aug-26 17:33N 35°19' E 139°41'0 0.0
2015-Aug-26 16:33N 35°19' E 139°41'0 0.0
2015-Aug-26 15:33N 35°19' E 139°41'0 0.0
2015-Aug-26 14:33N 35°19' E 139°41'0 0.0
2015-Aug-26 13:33N 35°19' E 139°41'0 0.1
2015-Aug-26 12:33N 35°19' E 139°41'0 0.1
2015-Aug-26 11:30N 35°19' E 139°41'0 0.1
2015-Aug-26 10:33N 35°19' E 139°41'0 0.1
2015-Aug-26 09:33N 35°19' E 139°41'0 0.0
2015-Aug-26 08:33N 35°19' E 139°41'0 0.1
2015-Aug-26 07:33N 35°19' E 139°41'0 0.1
2015-Aug-26 06:33N 35°19' E 139°41'0 0.0
2015-Aug-26 05:33N 35°19' E 139°41'0 0.1
2015-Aug-26 04:33N 35°19' E 139°41'0 0.0
2015-Aug-26 03:33N 35°19' E 139°41'0 0.1
2015-Aug-26 02:33N 35°19' E 139°41'0 0.1
2015-Aug-26 01:33N 35°19' E 139°41'0 0.1
2015-Aug-26 00:33N 35°19' E 139°41'0 0.1
2015-Aug-25 23:33N 35°19' E 139°41'0 0.0
2015-Aug-25 22:30N 35°19' E 139°41'0 0.0
2015-Aug-25 21:33N 35°19' E 139°41'0 0.1
2015-Aug-25 20:33N 35°19' E 139°41'0 0.1
2015-Aug-25 19:33N 35°19' E 139°41'0 0.0
2015-Aug-25 18:33N 35°19' E 139°41'0 0.0
2015-Aug-25 17:33N 35°19' E 139°41'0 0.0
2015-Aug-25 16:33N 35°19' E 139°41'0 0.0
2015-Aug-25 15:33N 35°19' E 139°41'0 0.0
2015-Aug-25 14:33N 35°19' E 139°41'0 0.0
2015-Aug-25 13:30N 35°19' E 139°41'0 0.1
2015-Aug-25 12:33N 35°19' E 139°41'0 0.1
2015-Aug-25 11:33N 35°19' E 139°41'0 0.1
2015-Aug-25 10:33N 35°19' E 139°41'0 0.1
2015-Aug-25 09:33N 35°19' E 139°41'0 0.1
2015-Aug-25 08:33N 35°19' E 139°41'0 0.0
2015-Aug-25 07:33N 35°19' E 139°41'0 0.0
2015-Aug-25 06:30N 35°19' E 139°41'0 0.0
2015-Aug-25 05:33N 35°19' E 139°41'0 0.0
2015-Aug-25 04:33N 35°19' E 139°41'0 0.0
2015-Aug-25 03:30N 35°19' E 139°41'0 0.0
2015-Aug-25 02:33N 35°19' E 139°41'0 0.0
2015-Aug-25 01:33N 35°19' E 139°41'0 0.0
2015-Aug-25 00:33N 35°19' E 139°41'0 0.0
2015-Aug-24 23:33N 35°19' E 139°41'0 0.0
2015-Aug-24 22:30N 35°19' E 139°41'0 0.0
2015-Aug-24 21:33N 35°19' E 139°41'0 0.0
2015-Aug-24 20:33N 35°19' E 139°41'0 0.0
2015-Aug-24 19:33N 35°19' E 139°41'0 0.0
2015-Aug-24 18:33N 35°19' E 139°41'0 0.0
2015-Aug-24 17:33N 35°19' E 139°41'0 0.1
2015-Aug-24 16:33N 35°19' E 139°41'0 0.0
2015-Aug-24 15:33N 35°19' E 139°41'0 0.1
2015-Aug-24 14:33N 35°19' E 139°41'0 0.1
2015-Aug-24 13:33N 35°19' E 139°41'0 0.0
2015-Aug-24 12:33N 35°19' E 139°41'0 0.1
2015-Aug-24 11:33N 35°19' E 139°41'0 0.1
2015-Aug-24 10:33N 35°19' E 139°41'0 0.1
2015-Aug-24 09:33N 35°19' E 139°41'0 0.1
2015-Aug-24 08:33N 35°19' E 139°41'0 0.0
2015-Aug-24 07:33N 35°19' E 139°41'0 0.1
2015-Aug-24 06:30N 35°19' E 139°41'1 1.2
2015-Aug-24 05:33N 35°19' E 139°40'1 0.6
2015-Aug-24 04:28N 35°19' E 139°39'0 0.0
2015-Aug-24 03:31N 35°19' E 139°39'0 0.0
2015-Aug-24 02:28N 35°19' E 139°39'0 0.0
2015-Aug-24 01:31N 35°19' E 139°39'0 0.0
2015-Aug-24 00:31N 35°19' E 139°39'0 0.0
2015-Aug-23 23:31N 35°19' E 139°39'2 1.7
2015-Aug-23 22:33N 35°19' E 139°41'0 0.0
2015-Aug-23 21:33N 35°19' E 139°41'0 0.0
2015-Aug-23 20:33N 35°19' E 139°41'0 0.1
2015-Aug-23 19:33N 35°19' E 139°41'0 0.0
2015-Aug-23 18:33N 35°19' E 139°41'0 0.1
2015-Aug-23 17:33N 35°19' E 139°41'0 0.1
2015-Aug-23 16:30N 35°19' E 139°41'0 0.1
2015-Aug-23 15:33N 35°19' E 139°41'0 0.1
2015-Aug-23 14:33N 35°19' E 139°41'0 0.0
2015-Aug-23 13:33N 35°19' E 139°41'0 0.1
2015-Aug-23 12:33N 35°19' E 139°41'8 7.6
2015-Aug-23 11:33N 35°13' E 139°47'1716.4
2015-Aug-23 10:33N 35°00' E 139°35'  
Track history (hours):
 
Tides and Currents Weather Stations Pressure Air Temp Water Temp Dewpoint Dewpoint Depression Visibility Wind Speed Wind Dir Waves Ship Positions

Nichiryu Maru

Last reported at 2015-Aug-31 12:12 UTC. Time now 2015-Sep-01 20:24 UTC.
Position N 34°51' E 139°22'.

Length 158 m; draft 6.5 m.

Type: Cargo ship. MMSI: 43100939.

Date/timePositionNaut miles runAvg speedWind from/ knotsBaromVisibWave heightAir tempDewpointWater temp
2015-Aug-31 12:12N 34°51' E 139°22'1818.9
2015-Aug-31 11:16N 35°02' E 139°39'1216.3
2015-Aug-31 10:33N 35°12' E 139°46'9 8.7
2015-Aug-31 09:33N 35°19' E 139°39'0 0.0
2015-Aug-31 08:29N 35°19' E 139°39'0 0.0
2015-Aug-31 07:32N 35°19' E 139°39'0 0.0
2015-Aug-31 06:32N 35°19' E 139°39'0 0.0
2015-Aug-31 05:26N 35°19' E 139°39'0 0.0
2015-Aug-31 04:32N 35°19' E 139°39'0 0.0
2015-Aug-31 03:29N 35°19' E 139°39'0 0.0
2015-Aug-31 02:26N 35°19' E 139°39'0 0.0
2015-Aug-31 01:32N 35°19' E 139°39'0 0.0
2015-Aug-31 00:32N 35°19' E 139°39'0 0.0
2015-Aug-30 23:32N 35°19' E 139°39'2 1.6
2015-Aug-30 22:32N 35°19' E 139°41'0 0.0
2015-Aug-30 21:32N 35°19' E 139°41'0 0.0
2015-Aug-30 20:32N 35°19' E 139°41'0 0.0
2015-Aug-30 19:32N 35°19' E 139°41'0 0.0
2015-Aug-30 18:32N 35°19' E 139°41'0 0.0
2015-Aug-30 17:32N 35°19' E 139°41'0 0.0
2015-Aug-30 16:32N 35°19' E 139°41'0 0.0
2015-Aug-30 15:32N 35°19' E 139°41'0 0.0
2015-Aug-30 14:32N 35°19' E 139°41'0 0.0
2015-Aug-30 13:32N 35°19' E 139°41'7 7.1
2015-Aug-30 12:33N 35°14' E 139°47'7217.1
2015-Aug-30 08:22N 34°32' E 138°36'166 3.4
2015-Aug-28 07:20N 34°37' E 135°15'4 0.9
2015-Aug-28 02:34N 34°32' E 135°14'1916.7
2015-Aug-28 01:26N 34°18' E 134°60'1618.6
2015-Aug-28 00:34N 34°02' E 134°60'22717.4
2015-Aug-27 11:32N 34°54' E 139°27'1919.4
2015-Aug-27 10:32N 35°08' E 139°44'1111.5
2015-Aug-27 09:33N 35°19' E 139°42'2 2.0
2015-Aug-27 08:33N 35°19' E 139°39'0 0.0
2015-Aug-27 07:33N 35°19' E 139°39'0 0.0
2015-Aug-27 06:33N 35°19' E 139°39'0 0.0
2015-Aug-27 05:33N 35°19' E 139°39'0 0.0
2015-Aug-27 04:33N 35°19' E 139°39'2 1.7
2015-Aug-27 03:34N 35°19' E 139°41'0 0.0
2015-Aug-27 02:33N 35°19' E 139°41'0 0.1
2015-Aug-27 01:33N 35°19' E 139°41'0 0.1
2015-Aug-27 00:33N 35°19' E 139°41'0 0.0
2015-Aug-26 23:33N 35°19' E 139°41'0 0.0
2015-Aug-26 22:33N 35°19' E 139°41'0 0.0
2015-Aug-26 21:33N 35°19' E 139°41'0 0.0
2015-Aug-26 20:33N 35°19' E 139°41'0 0.0
2015-Aug-26 19:33N 35°19' E 139°41'0 0.0
2015-Aug-26 18:33N 35°19' E 139°41'0 0.0
2015-Aug-26 17:33N 35°19' E 139°41'0 0.0
2015-Aug-26 16:33N 35°19' E 139°41'0 0.0
2015-Aug-26 15:33N 35°19' E 139°41'0 0.0
2015-Aug-26 14:33N 35°19' E 139°41'0 0.0
2015-Aug-26 13:33N 35°19' E 139°41'0 0.1
2015-Aug-26 12:33N 35°19' E 139°41'0 0.1
2015-Aug-26 11:30N 35°19' E 139°41'0 0.1
2015-Aug-26 10:33N 35°19' E 139°41'0 0.1
2015-Aug-26 09:33N 35°19' E 139°41'0 0.0
2015-Aug-26 08:33N 35°19' E 139°41'0 0.1
2015-Aug-26 07:33N 35°19' E 139°41'0 0.1
2015-Aug-26 06:33N 35°19' E 139°41'0 0.0
2015-Aug-26 05:33N 35°19' E 139°41'0 0.1
2015-Aug-26 04:33N 35°19' E 139°41'0 0.0
2015-Aug-26 03:33N 35°19' E 139°41'0 0.1
2015-Aug-26 02:33N 35°19' E 139°41'0 0.1
2015-Aug-26 01:33N 35°19' E 139°41'0 0.1
2015-Aug-26 00:33N 35°19' E 139°41'0 0.1
2015-Aug-25 23:33N 35°19' E 139°41'0 0.0
2015-Aug-25 22:30N 35°19' E 139°41'0 0.0
2015-Aug-25 21:33N 35°19' E 139°41'0 0.1
2015-Aug-25 20:33N 35°19' E 139°41'0 0.1
2015-Aug-25 19:33N 35°19' E 139°41'0 0.0
2015-Aug-25 18:33N 35°19' E 139°41'0 0.0
2015-Aug-25 17:33N 35°19' E 139°41'0 0.0
2015-Aug-25 16:33N 35°19' E 139°41'0 0.0
2015-Aug-25 15:33N 35°19' E 139°41'0 0.0
2015-Aug-25 14:33N 35°19' E 139°41'0 0.0
2015-Aug-25 13:30N 35°19' E 139°41'0 0.1
2015-Aug-25 12:33N 35°19' E 139°41'0 0.1
2015-Aug-25 11:33N 35°19' E 139°41'0 0.1
2015-Aug-25 10:33N 35°19' E 139°41'0 0.1
2015-Aug-25 09:33N 35°19' E 139°41'0 0.1
2015-Aug-25 08:33N 35°19' E 139°41'0 0.0
2015-Aug-25 07:33N 35°19' E 139°41'0 0.0
2015-Aug-25 06:30N 35°19' E 139°41'0 0.0
2015-Aug-25 05:33N 35°19' E 139°41'0 0.0
2015-Aug-25 04:33N 35°19' E 139°41'0 0.0
2015-Aug-25 03:30N 35°19' E 139°41'0 0.0
2015-Aug-25 02:33N 35°19' E 139°41'0 0.0
2015-Aug-25 01:33N 35°19' E 139°41'0 0.0
2015-Aug-25 00:33N 35°19' E 139°41'0 0.0
2015-Aug-24 23:33N 35°19' E 139°41'0 0.0
2015-Aug-24 22:30N 35°19' E 139°41'0 0.0
2015-Aug-24 21:33N 35°19' E 139°41'0 0.0
2015-Aug-24 20:33N 35°19' E 139°41'0 0.0
2015-Aug-24 19:33N 35°19' E 139°41'0 0.0
2015-Aug-24 18:33N 35°19' E 139°41'0 0.0
2015-Aug-24 17:33N 35°19' E 139°41'0 0.1
2015-Aug-24 16:33N 35°19' E 139°41'0 0.0
2015-Aug-24 15:33N 35°19' E 139°41'0 0.1
2015-Aug-24 14:33N 35°19' E 139°41'0 0.1
2015-Aug-24 13:33N 35°19' E 139°41'0 0.0
2015-Aug-24 12:33N 35°19' E 139°41'0 0.1
2015-Aug-24 11:33N 35°19' E 139°41'0 0.1
2015-Aug-24 10:33N 35°19' E 139°41'0 0.1
2015-Aug-24 09:33N 35°19' E 139°41'0 0.1
2015-Aug-24 08:33N 35°19' E 139°41'0 0.0
2015-Aug-24 07:33N 35°19' E 139°41'0 0.1
2015-Aug-24 06:30N 35°19' E 139°41'1 1.2
2015-Aug-24 05:33N 35°19' E 139°40'1 0.6
2015-Aug-24 04:28N 35°19' E 139°39'0 0.0
2015-Aug-24 03:31N 35°19' E 139°39'0 0.0
2015-Aug-24 02:28N 35°19' E 139°39'0 0.0
2015-Aug-24 01:31N 35°19' E 139°39'0 0.0
2015-Aug-24 00:31N 35°19' E 139°39'0 0.0
2015-Aug-23 23:31N 35°19' E 139°39'2 1.7
2015-Aug-23 22:33N 35°19' E 139°41'0 0.0
2015-Aug-23 21:33N 35°19' E 139°41'0 0.0
2015-Aug-23 20:33N 35°19' E 139°41'0 0.1
2015-Aug-23 19:33N 35°19' E 139°41'0 0.0
2015-Aug-23 18:33N 35°19' E 139°41'0 0.1
2015-Aug-23 17:33N 35°19' E 139°41'0 0.1
2015-Aug-23 16:30N 35°19' E 139°41'0 0.1
2015-Aug-23 15:33N 35°19' E 139°41'0 0.1
2015-Aug-23 14:33N 35°19' E 139°41'0 0.0
2015-Aug-23 13:33N 35°19' E 139°41'0 0.1
2015-Aug-23 12:33N 35°19' E 139°41'8 7.6
2015-Aug-23 11:33N 35°13' E 139°47'1716.4
2015-Aug-23 10:33N 35°00' E 139°35'  

Dump ship's entire track history